Time;durP1;ratioP1;P1;durP2;ratioP2;P2;SDS_P1;SDS_P2;PMS_P1;PMS_P2;Temp;Humidity;BMP_temperature;BMP_pressure;BME280_temperature;BME280_humidity;BME280_pressure;Samples;Min_cycle;Max_cycle;Signal;HPM_P1;HPM_P2
2022/06/21 00:02:07;;;;;;;6.68;1.70;;;;;;;;;;5047558;28;20046;-78
2022/06/21 00:04:33;;;;;;;6.00;1.90;;;22.70;80.10;;;;;;5065909;28;20076;-78
2022/06/21 00:07:01;;;;;;;6.45;1.70;;;22.60;77.20;;;;;;5052773;28;20095;-76
2022/06/21 00:09:26;;;;;;;5.75;1.85;;;22.70;80.00;;;;;;5019256;28;20045;-78
2022/06/21 00:11:52;;;;;;;7.07;2.08;;;22.90;77.80;;;;;;5051252;28;20375;-79
2022/06/21 00:14:18;;;;;;;5.65;1.70;;;22.80;77.00;;;;;;5033237;28;20052;-78
2022/06/21 00:16:44;;;;;;;4.25;1.80;;;22.90;80.30;;;;;;5034698;28;20046;-78
2022/06/21 00:19:21;;;;;;;3.90;1.40;;;22.90;77.00;;;;;;5051963;28;20044;-77
2022/06/21 00:21:46;;;;;;;4.75;1.55;;;22.80;80.10;;;;;;5046647;28;20045;-78
2022/06/21 00:24:13;;;;;;;6.00;1.85;;;22.80;77.70;;;;;;5028322;28;20517;-78
2022/06/21 00:26:38;;;;;;;6.47;1.67;;;22.50;79.20;;;;;;5052016;28;20538;-78
2022/06/21 00:29:04;;;;;;;5.30;1.73;;;22.60;76.70;;;;;;5018915;28;20132;-77
2022/06/21 00:31:32;;;;;;;6.38;1.73;;;22.90;80.30;;;;;;5033747;28;20048;-79
2022/06/21 00:33:58;;;;;;;6.60;1.85;;;22.70;80.10;;;;;;5008978;28;20112;-79
2022/06/21 00:36:26;;;;;;;8.10;1.90;;;22.60;76.70;;;;;;5031739;28;20115;-79
2022/06/21 00:38:53;;;;;;;6.35;1.63;;;22.60;79.90;;;;;;5034618;28;20065;-79
2022/06/21 00:41:29;;;;;;;5.65;1.80;;;22.70;76.70;;;;;;5041099;28;20047;-73
2022/06/21 00:43:55;;;;;;;6.13;1.80;;;22.90;80.00;;;;;;5046822;28;20152;-78
2022/06/21 00:46:37;;;;;;;6.95;1.70;;;22.60;80.00;;;;;;5051322;28;20127;-73
2022/06/21 00:49:03;;;;;;;8.38;1.90;;;22.40;79.80;;;;;;5035705;28;20455;-78
2022/06/21 00:51:40;;;;;;;9.18;2.15;;;22.50;80.10;;;;;;5009719;28;20060;-78
2022/06/21 00:54:14;;;;;;;5.47;1.70;;;22.60;79.90;;;;;;5050402;28;20529;-77
2022/06/21 00:56:46;;;;;;;4.88;1.73;;;22.70;75.90;;;;;;5016140;28;20102;-78
2022/06/21 00:59:16;;;;;;;8.18;2.22;;;22.80;80.00;;;;;;5018428;28;20049;-76
2022/06/21 01:01:42;;;;;;;9.68;2.15;;;22.70;77.30;;;;;;5051619;28;20053;-74
2022/06/21 01:04:14;;;;;;;5.97;1.90;;;22.60;79.90;;;;;;5047224;28;20140;-78
2022/06/21 01:06:42;;;;;;;5.82;1.90;;;22.80;76.40;;;;;;5048891;28;20060;-77
2022/06/21 01:09:12;;;;;;;5.72;1.80;;;23.00;77.50;;;;;;5010287;28;20152;-77
2022/06/21 01:11:40;;;;;;;5.60;1.92;;;22.50;80.10;;;;;;5032819;28;20041;-77
2022/06/21 01:14:08;;;;;;;6.00;1.88;;;22.80;77.30;;;;;;5038899;28;20092;-76
2022/06/21 01:16:34;;;;;;;5.75;1.48;;;22.60;79.90;;;;;;5032673;28;20060;-75
2022/06/21 01:19:00;;;;;;;5.93;1.95;;;22.70;76.80;;;;;;5020318;28;20041;-77
2022/06/21 01:21:25;;;;;;;5.10;2.00;;;22.70;80.10;;;;;;5038796;28;20049;-76
2022/06/21 01:24:17;;;;;;;7.60;2.10;;;22.60;79.90;;;;;;5037592;28;20502;-78
2022/06/21 01:26:58;;;;;;;5.35;1.77;;;22.50;79.90;;;;;;5067187;28;20049;-79
2022/06/21 01:29:25;;;;;;;7.82;1.90;;;22.80;80.20;;;;;;5055054;28;20116;-78
2022/06/21 01:31:51;;;;;;;5.40;1.85;;;22.60;80.10;;;;;;5020815;28;20060;-78
2022/06/21 01:34:20;;;;;;;6.75;1.70;;;22.70;80.10;;;;;;5021730;28;20055;-77
2022/06/21 01:36:48;;;;;;;6.22;1.60;;;22.50;79.90;;;;;;5051936;28;20092;-79
2022/06/21 01:39:23;;;;;;;4.10;1.60;;;22.60;75.20;;;;;;5022275;28;20122;-75
2022/06/21 01:42:03;;;;;;;5.75;1.83;;;22.50;76.70;;;;;;5034955;28;20107;-77
2022/06/21 01:44:35;;;;;;;5.80;1.70;;;22.50;79.90;;;;;;5051411;28;20502;-78
2022/06/21 01:47:02;;;;;;;4.40;1.73;;;22.50;80.20;;;;;;5047898;28;20155;-79
2022/06/21 01:49:29;;;;;;;7.80;1.90;;;22.40;76.70;;;;;;5022220;28;20040;-78
2022/06/21 01:51:57;;;;;;;6.25;1.67;;;22.50;77.10;;;;;;5021799;28;20041;-78
2022/06/21 01:54:24;;;;;;;5.53;1.50;;;22.50;80.10;;;;;;5055061;28;20403;-78
2022/06/21 01:56:50;;;;;;;5.30;1.80;;;22.70;77.50;;;;;;5036478;28;20161;-76
2022/06/21 01:59:33;;;;;;;5.53;1.70;;;22.60;80.10;;;;;;5044657;28;20120;-76
2022/06/21 02:02:09;;;;;;;3.35;1.48;;;22.60;80.10;;;;;;5054973;28;20499;-78
2022/06/21 02:05:01;;;;;;;5.53;1.60;;;22.70;76.30;;;;;;5037443;28;20040;-79
2022/06/21 02:07:29;;;;;;;6.15;1.92;;;22.30;80.00;;;;;;5037663;28;20053;-78
2022/06/21 02:10:18;;;;;;;4.50;1.63;;;22.50;77.50;;;;;;5053310;28;20486;-76
2022/06/21 02:12:48;;;;;;;4.18;1.85;;;22.40;77.70;;;;;;5038341;28;20120;-78
2022/06/21 02:15:21;;;;;;;6.57;2.00;;;22.50;76.80;;;;;;5036057;28;20371;-74
2022/06/21 02:17:46;;;;;;;5.43;1.52;;;22.50;77.50;;;;;;5034839;28;20116;-78
2022/06/21 02:20:32;;;;;;;5.07;1.63;;;22.40;79.90;;;;;;5055490;28;20473;-78
2022/06/21 02:22:58;;;;;;;5.43;1.88;;;;;;;;;;5049168;28;20124;-78
2022/06/21 02:25:24;;;;;;;4.97;1.58;;;22.50;76.80;;;;;;5033829;28;20049;-78
2022/06/21 02:27:51;;;;;;;6.80;1.63;;;22.60;76.30;;;;;;5033822;28;20048;-79
2022/06/21 02:30:23;;;;;;;3.13;1.35;;;22.30;76.70;;;;;;5063969;28;20040;-69
2022/06/21 02:32:49;;;;;;;4.73;1.47;;;22.50;80.00;;;;;;5016755;28;20419;-76
2022/06/21 02:35:17;;;;;;;4.75;1.85;;;22.50;80.00;;;;;;5036959;28;20311;-79
2022/06/21 02:37:44;;;;;;;5.07;1.73;;;22.40;79.90;;;;;;5053953;28;20195;-78
2022/06/21 02:40:20;;;;;;;4.28;1.60;;;22.40;79.90;;;;;;5025601;28;20073;-77
2022/06/21 02:42:46;;;;;;;4.18;1.55;;;;;;;;;;5037423;28;20053;-78
2022/06/21 02:45:45;;;;;;;6.50;1.75;;;22.30;75.20;;;;;;5054747;28;20084;-79
2022/06/21 02:48:14;;;;;;;5.40;1.80;;;22.30;79.90;;;;;;5011155;28;20049;-79
2022/06/21 02:50:42;;;;;;;4.30;1.67;;;22.40;76.80;;;;;;5040969;28;20036;-75
2022/06/21 02:53:15;;;;;;;5.43;1.60;;;22.20;76.70;;;;;;5036929;28;20048;-78
2022/06/21 02:55:47;;;;;;;4.50;1.60;;;22.30;75.90;;;;;;5021053;28;20508;-77
2022/06/21 02:58:17;;;;;;;5.03;1.50;;;22.60;80.10;;;;;;5019439;28;20049;-76
2022/06/21 03:00:43;;;;;;;5.75;2.03;;;22.50;77.50;;;;;;5035281;28;20052;-77
2022/06/21 03:03:13;;;;;;;4.85;1.42;;;22.30;79.90;;;;;;5049730;28;20044;-78
2022/06/21 03:05:39;;;;;;;6.90;1.50;;;22.40;80.00;;;;;;5037152;28;20060;-78
2022/06/21 03:08:05;;;;;;;4.30;1.55;;;22.30;79.90;;;;;;5028626;28;20395;-78
2022/06/21 03:10:41;;;;;;;8.70;1.67;;;22.30;80.30;;;;;;5036805;28;20049;-78
2022/06/21 03:13:33;;;;;;;4.90;1.67;;;22.30;79.20;;;;;;5028678;28;20045;-78
2022/06/21 03:16:06;;;;;;;5.88;1.60;;;22.30;75.90;;;;;;5038729;28;20052;-74
2022/06/21 03:18:38;;;;;;;6.85;1.70;;;22.40;79.90;;;;;;5020384;28;20052;-79
2022/06/21 03:21:04;;;;;;;4.80;1.65;;;22.30;77.30;;;;;;5020014;28;20134;-73
2022/06/21 03:23:30;;;;;;;5.10;1.50;;;22.10;79.60;;;;;;5029382;28;20387;-79
2022/06/21 03:26:03;;;;;;;5.13;1.50;;;22.30;79.70;;;;;;5032679;28;20171;-79
2022/06/21 03:28:34;;;;;;;;;;;22.40;77.40;;;;;;5050058;28;20075;-76
2022/06/21 03:31:09;;;;;;;5.97;1.60;;;22.30;75.90;;;;;;5032947;28;19921;-77
2022/06/21 03:33:36;;;;;;;5.10;1.65;;;22.20;79.50;;;;;;5036884;28;20048;-78
2022/06/21 03:36:04;;;;;;;5.80;1.80;;;22.30;77.00;;;;;;5035136;28;20064;-77
2022/06/21 03:38:29;;;;;;;7.93;1.83;;;22.20;76.80;;;;;;5035891;28;20501;-78
2022/06/21 03:43:49;;;;;;;5.55;1.80;;;22.10;79.40;;;;;;5036387;28;20049;-78
2022/06/21 03:46:22;;;;;;;3.60;1.60;;;22.30;79.60;;;;;;5051643;28;20108;-77
2022/06/21 03:49:15;;;;;;;7.13;2.03;;;22.20;79.50;;;;;;5052736;28;20049;-77
2022/06/21 03:51:42;;;;;;;4.57;1.83;;;22.00;77.00;;;;;;5051816;28;20131;-73
2022/06/21 03:54:24;;;;;;;4.22;1.40;;;22.10;79.40;;;;;;5017190;28;20491;-77
2022/06/21 03:56:53;;;;;;;7.10;1.70;;;22.40;76.40;;;;;;5053737;28;20056;-74
2022/06/21 03:59:24;;;;;;;4.72;1.92;;;22.00;79.40;;;;;;5036321;28;20057;-75
2022/06/21 04:02:11;;;;;;;5.68;1.80;;;22.20;75.20;;;;;;5044165;28;20379;-74
2022/06/21 04:04:49;;;;;;;4.07;1.88;;;22.20;75.50;;;;;;5050753;28;20037;-76
2022/06/21 04:07:37;;;;;;;6.00;1.70;;;22.60;79.60;;;;;;5066274;28;20072;-74
2022/06/21 04:10:13;;;;;;;4.43;1.70;;;22.30;79.40;;;;;;5035876;28;20040;-74
2022/06/21 04:12:41;;;;;;;7.50;1.90;;;22.70;77.00;;;;;;5018579;28;20060;-72
2022/06/21 04:15:17;;;;;;;4.38;1.98;;;22.50;79.30;;;;;;5031238;28;20468;-74
2022/06/21 04:17:53;;;;;;;5.38;1.80;;;22.60;79.40;;;;;;5062474;28;20120;-75
2022/06/21 04:20:32;;;;;;;4.70;1.55;;;22.60;79.30;;;;;;5052670;28;20049;-74
2022/06/21 04:23:02;;;;;;;6.40;1.80;;;22.60;79.30;;;;;;5035371;28;20053;-75
2022/06/21 04:25:34;;;;;;;5.07;1.58;;;22.70;79.30;;;;;;5052560;28;20045;-75
2022/06/21 04:28:04;;;;;;;4.63;1.60;;;22.50;79.20;;;;;;5050721;28;20501;-72
2022/06/21 04:30:56;;;;;;;5.28;1.65;;;22.50;79.10;;;;;;5052077;28;20075;-74
2022/06/21 04:33:32;;;;;;;4.05;1.67;;;22.50;74.30;;;;;;5023794;28;20046;-73
2022/06/21 04:36:06;;;;;;;7.55;1.88;;;22.70;76.80;;;;;;5031781;28;20056;-74
2022/06/21 04:38:36;;;;;;;5.65;1.90;;;22.50;79.10;;;;;;5066006;28;20115;-74
2022/06/21 04:41:30;;;;;;;5.05;1.73;;;22.60;79.20;;;;;;5052111;28;20052;-74
2022/06/21 04:44:14;;;;;;;6.35;1.80;;;22.60;75.00;;;;;;5012037;28;20061;-74
2022/06/21 04:46:46;;;;;;;5.57;2.10;;;22.50;79.00;;;;;;4994387;28;20056;-74
2022/06/21 04:49:12;;;;;;;;;;;22.40;76.60;;;;;;4973402;28;20065;-75
2022/06/21 04:51:42;;;;;;;4.15;1.70;;;22.50;79.00;;;;;;4995488;28;19921;-74
2022/06/21 04:54:27;;;;;;;5.28;1.88;;;22.50;79.00;;;;;;4963385;28;20493;-74
2022/06/21 04:57:14;;;;;;;7.22;2.20;;;22.50;78.90;;;;;;4972968;28;20064;-74
2022/06/21 04:59:44;;;;;;;5.40;1.70;;;22.80;75.30;;;;;;4990701;28;20423;-74
2022/06/21 05:02:19;;;;;;;8.38;2.35;;;22.60;79.00;;;;;;4979450;28;20393;-75
2022/06/21 05:04:44;;;;;;;6.63;1.83;;;22.60;79.10;;;;;;4978960;28;20042;-74
2022/06/21 05:07:18;;;;;;;5.28;1.90;;;23.00;79.00;;;;;;5001537;28;20046;-74
2022/06/21 05:09:44;;;;;;;6.30;2.00;;;22.90;76.50;;;;;;4978203;28;20045;-74
2022/06/21 05:12:21;;;;;;;4.93;2.10;;;22.90;78.90;;;;;;4964501;28;20046;-74
2022/06/21 05:14:48;;;;;;;7.85;2.10;;;22.80;78.90;;;;;;4964002;28;20103;-74
2022/06/21 05:17:15;;;;;;;3.72;1.85;;;22.90;78.80;;;;;;4978982;28;20145;-74
2022/06/21 05:19:44;;;;;;;6.35;2.28;;;23.00;78.80;;;;;;4961468;28;20129;-69
2022/06/21 05:22:28;;;;;;;8.75;2.83;;;22.90;78.60;;;;;;5035371;28;20049;-75
2022/06/21 05:24:54;;;;;;;6.22;1.83;;;23.10;74.70;;;;;;5035372;28;20129;-74
2022/06/21 05:27:33;;;;;;;4.50;1.83;;;23.30;78.10;;;;;;5034884;28;20049;-75
2022/06/21 05:30:06;;;;;;;5.65;2.08;;;23.60;77.90;;;;;;5054419;28;20056;-73
2022/06/21 05:32:42;;;;;;;4.50;1.80;;;23.80;77.90;;;;;;5055770;28;20064;-70
2022/06/21 05:35:16;;;;;;;5.85;1.77;;;24.10;77.30;;;;;;5037997;28;20068;-73
2022/06/21 05:37:50;;;;;;;4.82;1.70;;;24.30;77.50;;;;;;5022399;28;20053;-71
2022/06/21 05:40:37;;;;;;;5.80;1.80;;;24.40;76.90;;;;;;5031619;28;20108;-65
2022/06/21 05:43:04;;;;;;;5.05;1.67;;;24.70;76.90;;;;;;5035299;28;20041;-75
2022/06/21 05:45:34;;;;;;;4.82;1.70;;;24.60;76.50;;;;;;5053804;28;20053;-74
2022/06/21 05:48:03;;;;;;;5.72;2.10;;;24.60;76.70;;;;;;5055532;28;20418;-70
2022/06/21 05:50:31;;;;;;;5.60;1.83;;;24.70;72.50;;;;;;5022211;28;20064;-75
2022/06/21 05:53:00;;;;;;;4.57;1.60;;;24.60;73.90;;;;;;5054753;28;20119;-74
2022/06/21 05:55:28;;;;;;;4.13;1.60;;;24.60;73.80;;;;;;5019688;28;20461;-70
2022/06/21 05:57:54;;;;;;;6.50;1.77;;;24.80;76.40;;;;;;5026957;28;20048;-74
2022/06/21 06:00:24;;;;;;;5.75;1.60;;;24.80;76.00;;;;;;5037637;28;20040;-73
2022/06/21 06:02:50;;;;;;;4.50;1.73;;;25.00;73.60;;;;;;5053342;28;20037;-66
2022/06/21 06:05:19;;;;;;;7.47;1.88;;;24.90;73.50;;;;;;5033978;28;20044;-66
2022/06/21 06:07:48;;;;;;;7.35;1.92;;;24.90;73.30;;;;;;5065007;28;20369;-65
2022/06/21 06:10:14;;;;;;;5.85;1.77;;;25.10;75.70;;;;;;5021628;28;20049;-66
2022/06/21 06:12:42;;;;;;;5.10;1.52;;;25.10;72.80;;;;;;5021381;28;20398;-67
2022/06/21 06:15:12;;;;;;;4.85;2.08;;;25.00;75.50;;;;;;5006503;28;20061;-66
2022/06/21 06:17:55;;;;;;;7.22;1.90;;;25.40;73.30;;;;;;5051280;28;20056;-65
2022/06/21 06:20:22;;;;;;;4.38;1.75;;;25.30;73.00;;;;;;5021522;28;20448;-66
2022/06/21 06:22:58;;;;;;;8.45;2.40;;;25.30;72.50;;;;;;5053930;28;20048;-65
2022/06/21 06:25:28;;;;;;;4.78;2.20;;;25.10;74.60;;;;;;5037367;28;20088;-68
2022/06/21 06:27:59;;;;;;;7.70;2.28;;;25.30;72.50;;;;;;5016571;28;20084;-86
2022/06/21 06:30:33;;;;;;;5.82;1.75;;;25.50;72.30;;;;;;5054519;28;20048;-83
2022/06/21 06:33:04;;;;;;;4.20;1.65;;;25.30;72.10;;;;;;5034048;28;20124;-77
2022/06/21 06:35:29;;;;;;;4.97;2.03;;;25.40;72.10;;;;;;5033623;28;20057;-69
2022/06/21 06:37:55;;;;;;;5.20;1.80;;;25.60;74.10;;;;;;5046365;28;20107;-77
2022/06/21 06:40:32;;;;;;;6.82;1.73;;;25.60;71.40;;;;;;5049305;28;20052;-68
2022/06/21 06:43:03;;;;;;;8.10;1.77;;;25.50;71.50;;;;;;5025854;28;20491;-83
2022/06/21 06:45:31;;;;;;;4.38;1.60;;;25.80;73.70;;;;;;5047455;28;20045;-66
2022/06/21 06:48:03;;;;;;;5.00;1.80;;;25.60;71.40;;;;;;5048754;28;20053;-75
2022/06/21 06:50:34;;;;;;;5.13;2.05;;;26.00;73.80;;;;;;5035868;28;20072;-67
2022/06/21 06:53:17;;;;;;;6.70;1.75;;;25.60;70.60;;;;;;5035466;28;20151;-80
2022/06/21 06:55:46;;;;;;;4.15;1.60;;;25.40;69.30;;;;;;5051210;28;20045;-80
2022/06/21 06:58:35;;;;;;;7.95;2.00;;;25.60;73.30;;;;;;5049816;28;20041;-82
2022/06/21 07:01:09;;;;;;;4.50;1.55;;;25.30;69.10;;;;;;5052212;28;20064;-66
2022/06/21 07:03:41;;;;;;;6.70;2.05;;;25.80;70.60;;;;;;5048582;28;20042;-66
2022/06/21 07:06:36;;;;;;;5.28;1.85;;;26.10;69.50;;;;;;5034003;28;20073;-67
2022/06/21 07:09:08;;;;;;;5.80;2.20;;;25.70;69.20;;;;;;5052215;28;20129;-79
2022/06/21 07:11:37;;;;;;;6.80;1.70;;;25.80;70.60;;;;;;5051723;28;20046;-80
2022/06/21 07:14:02;;;;;;;4.70;1.70;;;26.00;68.80;;;;;;5050303;28;20110;-81
2022/06/21 07:16:29;;;;;;;5.35;1.90;;;26.00;69.60;;;;;;5055823;28;20045;-85
2022/06/21 07:18:56;;;;;;;5.68;2.15;;;26.10;70.00;;;;;;5042429;28;20042;-66
2022/06/21 07:21:22;;;;;;;6.18;1.95;;;26.20;70.20;;;;;;5054784;28;20107;-84
2022/06/21 07:23:47;;;;;;;4.88;1.70;;;26.40;70.20;;;;;;5060618;28;20041;-76
2022/06/21 07:26:30;;;;;;;6.53;1.98;;;26.30;69.70;;;;;;5058456;28;20087;-76
2022/06/21 07:29:09;;;;;;;5.70;1.58;;;26.10;68.50;;;;;;5042566;28;20059;-86
2022/06/21 07:31:37;;;;;;;4.20;1.50;;;26.20;68.70;;;;;;5073712;28;20124;-84
2022/06/21 07:34:12;;;;;;;5.75;1.80;;;26.00;70.00;;;;;;5045511;28;20041;-83
2022/06/21 07:36:51;;;;;;;5.22;1.70;;;26.10;68.50;;;;;;5039619;28;20053;-73
2022/06/21 07:39:23;;;;;;;4.25;1.65;;;26.20;70.10;;;;;;5058959;28;20056;-81
2022/06/21 07:41:54;;;;;;;5.18;1.65;;;26.10;69.80;;;;;;5044769;28;20054;-66
2022/06/21 07:44:30;;;;;;;3.17;1.63;;;26.10;68.10;;;;;;5043580;28;20042;-66
2022/06/21 07:47:04;;;;;;;4.40;1.85;;;26.20;70.00;;;;;;5039873;28;20051;-66
2022/06/21 07:49:38;;;;;;;3.97;1.70;;;26.10;70.10;;;;;;5029113;28;20064;-85
2022/06/21 07:52:06;;;;;;;5.50;1.80;;;25.90;70.10;;;;;;5030409;28;20144;-66
2022/06/21 07:54:35;;;;;;;4.90;1.77;;;26.00;69.90;;;;;;5028145;28;20451;-69
2022/06/21 07:57:05;;;;;;;4.00;1.63;;;26.20;70.20;;;;;;5044294;28;20436;-65
2022/06/21 07:59:38;;;;;;;4.80;1.80;;;26.00;69.50;;;;;;5053271;28;20123;-68
2022/06/21 08:08:06;;;;;;;5.63;2.00;;;26.40;68.40;;;;;;4964663;28;20158;-69
2022/06/21 08:10:51;;;;;;;3.80;1.52;;;26.00;69.70;;;;;;4909905;28;20061;-66
2022/06/21 08:13:17;;;;;;;4.45;1.80;;;25.90;69.60;;;;;;4936939;28;20046;-67
2022/06/21 08:15:58;;;;;;;4.35;1.83;;;26.00;72.50;;;;;;4952867;28;20558;-70
2022/06/21 08:18:48;;;;;;;5.90;1.80;;;26.20;70.00;;;;;;4966993;28;20065;-82
2022/06/21 08:21:25;;;;;;;4.97;1.90;;;26.00;69.70;;;;;;4961335;28;20138;-66
2022/06/21 08:23:54;;;;;;;3.15;1.60;;;26.10;72.20;;;;;;4949602;28;20077;-66
2022/06/21 08:26:22;;;;;;;5.65;1.92;;;26.20;69.70;;;;;;4987143;28;20042;-66
2022/06/21 08:29:00;;;;;;;7.20;2.08;;;26.10;68.80;;;;;;4945268;28;20142;-66
2022/06/21 08:31:39;;;;;;;4.78;2.10;;;26.20;72.00;;;;;;4985578;28;20137;-65
2022/06/21 08:34:11;;;;;;;4.47;1.80;;;26.40;68.00;;;;;;4964630;28;20054;-66
2022/06/21 08:36:43;;;;;;;4.10;1.70;;;26.50;69.60;;;;;;4954902;28;20050;-66
2022/06/21 08:39:45;;;;;;;2.67;1.60;;;26.40;69.40;;;;;;4930057;28;20058;-66
2022/06/21 08:42:30;;;;;;;3.90;1.52;;;26.50;68.10;;;;;;4959484;28;20616;-66
2022/06/21 08:48:17;;;;;;;4.95;1.83;;;26.50;68.50;;;;;;5053148;28;20045;-67
2022/06/21 08:50:47;;;;;;;7.30;2.03;;;26.30;72.00;;;;;;5044925;28;20094;-66
2022/06/21 08:53:24;;;;;;;3.10;1.40;;;26.40;69.10;;;;;;5048756;28;20052;-68
2022/06/21 08:56:22;;;;;;;3.28;1.38;;;26.40;69.10;;;;;;5051509;28;20053;-67
2022/06/21 08:59:06;;;;;;;5.75;1.80;;;26.40;69.20;;;;;;4978670;28;20053;-67
2022/06/21 09:01:38;;;;;;;6.38;2.08;;;26.60;67.80;;;;;;4965592;28;20077;-65
2022/06/21 09:04:17;;;;;;;6.43;1.87;;;26.60;67.70;;;;;;5012873;28;20128;-65
2022/06/21 09:07:11;;;;;;;6.55;1.67;;;26.50;67.10;;;;;;4995422;28;20062;-78
2022/06/21 09:10:19;;;;;;;4.18;1.52;;;26.70;66.40;;;;;;4996613;28;20129;-83
2022/06/21 09:12:45;;;;;;;5.03;1.83;;;26.30;66.60;;;;;;4940052;29;20086;-67
2022/06/21 09:15:32;;;;;;;5.55;1.70;;;26.20;67.90;;;;;;4956044;29;20090;-66
2022/06/21 09:18:26;;;;;;;6.82;2.10;;;26.40;66.90;;;;;;4939571;29;20066;-67
2022/06/21 09:21:31;;;;;;;6.88;1.83;;;26.60;66.90;;;;;;4898427;29;20071;-66
2022/06/21 09:24:00;;;;;;;5.38;1.83;;;26.60;67.40;;;;;;4896746;29;20088;-66
2022/06/21 09:26:46;;;;;;;6.13;1.80;;;26.60;69.30;;;;;;4868157;29;20052;-66
2022/06/21 09:29:35;;;;;;;5.95;1.58;;;26.30;66.90;;;;;;4851371;29;20056;-67
2022/06/21 09:32:53;;;;;;;5.57;1.63;;;26.60;67.10;;;;;;4883305;29;20056;-66
2022/06/21 09:36:02;;;;;;;11.13;1.90;;;26.40;66.90;;;;;;4864507;29;20064;-67
2022/06/21 09:38:47;;;;;;;4.28;1.60;;;26.20;66.70;;;;;;4916812;29;20135;-66
2022/06/21 09:41:30;;;;;;;4.63;1.60;;;26.40;66.80;;;;;;4916360;29;20059;-71
2022/06/21 09:44:15;;;;;;;3.10;1.40;;;26.60;66.80;;;;;;4917590;29;20055;-79
2022/06/21 09:47:00;;;;;;;3.65;1.50;;;26.50;71.10;;;;;;4887177;29;20405;-68
2022/06/21 09:49:43;;;;;;;5.47;1.65;;;26.40;66.60;;;;;;4920232;29;20490;-67
2022/06/21 09:52:14;;;;;;;3.85;1.52;;;26.20;71.10;;;;;;4936539;29;20494;-76
2022/06/21 09:54:44;;;;;;;5.35;1.67;;;26.20;66.90;;;;;;4936729;29;20087;-65
2022/06/21 09:57:37;;;;;;;6.22;1.90;;;26.00;68.20;;;;;;4944533;28;20055;-66
2022/06/21 10:00:18;;;;;;;3.53;1.63;;;26.10;67.00;;;;;;4967557;28;20058;-66
2022/06/21 10:03:06;;;;;;;4.15;1.48;;;26.10;66.90;;;;;;4937257;29;20048;-70
2022/06/21 10:05:57;;;;;;;4.60;1.88;;;25.80;66.70;;;;;;4967014;28;20050;-67
2022/06/21 10:09:00;;;;;;;7.82;2.97;;;26.40;67.20;;;;;;4961693;28;20110;-77
2022/06/21 10:11:43;;;;;;;3.15;1.48;;;26.40;67.20;;;;;;5050848;28;20134;-68
2022/06/21 10:14:18;;;;;;;;;;;26.20;67.00;;;;;;5051654;28;20037;-72
2022/06/21 10:16:52;;;;;;;3.75;1.50;;;26.40;67.20;;;;;;5040471;28;19970;-71
2022/06/21 10:19:36;;;;;;;5.90;1.63;;;26.30;67.10;;;;;;5043333;28;20056;-66
2022/06/21 10:22:10;;;;;;;5.53;1.60;;;26.20;70.80;;;;;;5027389;28;20068;-66
2022/06/21 10:24:35;;;;;;;4.95;1.70;;;26.20;66.80;;;;;;5045942;28;20041;-67
2022/06/21 10:27:36;;;;;;;3.97;1.77;;;26.20;67.70;;;;;;5034905;28;20048;-79
2022/06/21 10:30:29;;;;;;;3.63;1.50;;;26.10;71.00;;;;;;5022339;28;20049;-71
2022/06/21 10:33:20;;;;;;;4.80;1.63;;;26.00;66.70;;;;;;5048402;28;20494;-72
2022/06/21 10:35:55;;;;;;;3.25;1.60;;;26.20;66.70;;;;;;5035983;28;20053;-69
2022/06/21 10:38:37;;;;;;;3.50;1.80;;;26.00;68.20;;;;;;5046776;28;20085;-67
2022/06/21 10:41:40;;;;;;;4.55;1.58;;;26.10;68.30;;;;;;5034556;28;20049;-68
2022/06/21 10:44:22;;;;;;;3.10;1.58;;;26.00;66.60;;;;;;5037514;28;20057;-73
2022/06/21 10:46:49;;;;;;;2.45;1.25;;;25.80;68.40;;;;;;5045946;28;20100;-70
2022/06/21 10:49:27;;;;;;;4.25;1.50;;;25.80;68.00;;;;;;5036121;28;20053;-70
2022/06/21 10:52:12;;;;;;;4.78;1.90;;;25.80;70.70;;;;;;5041532;28;20059;-69
2022/06/21 10:54:57;;;;;;;5.18;1.70;;;25.80;66.60;;;;;;5046074;28;20049;-71
2022/06/21 10:57:25;;;;;;;5.32;1.60;;;26.10;66.80;;;;;;5034943;28;20587;-66
2022/06/21 11:03:04;;;;;;;5.15;1.42;;;25.90;70.60;;;;;;5034325;28;20045;-66
2022/06/21 11:05:57;;;;;;;2.72;1.30;;;26.00;67.60;;;;;;5034392;28;20091;-66
2022/06/21 11:08:47;;;;;;;5.03;1.58;;;25.60;66.20;;;;;;5022647;28;20407;-67
2022/06/21 11:11:29;;;;;;;5.45;1.67;;;25.80;66.50;;;;;;5034171;28;20052;-70
2022/06/21 11:14:16;;;;;;;4.60;1.42;;;26.00;66.50;;;;;;5032311;28;20045;-66
2022/06/21 11:17:19;;;;;;;5.30;1.67;;;25.70;66.40;;;;;;5047582;28;20449;-67
2022/06/21 11:20:05;;;;;;;4.72;1.70;;;25.60;70.30;;;;;;5044339;28;20047;-67
2022/06/21 11:22:47;;;;;;;4.25;1.63;;;25.80;70.70;;;;;;5024066;28;20064;-69
2022/06/21 11:25:49;;;;;;;5.80;1.35;;;26.00;66.70;;;;;;5021363;28;20395;-68
2022/06/21 11:28:18;;;;;;;4.50;1.60;;;25.70;66.50;;;;;;5025151;28;20484;-67
2022/06/21 11:31:02;;;;;;;6.57;1.90;;;25.60;67.70;;;;;;5049830;28;20128;-68
2022/06/21 11:33:30;;;;;;;4.45;1.60;;;25.80;70.90;;;;;;5027277;28;20711;-68
2022/06/21 11:36:11;;;;;;;3.53;1.40;;;25.70;67.70;;;;;;5046623;28;20081;-66
2022/06/21 11:39:05;;;;;;;5.55;1.60;;;24.00;69.70;;;;;;5048763;28;20122;-68
2022/06/21 11:42:05;;;;;;;4.70;1.60;;;26.00;71.50;;;;;;5050215;28;20395;-67
2022/06/21 11:44:40;;;;;;;4.22;1.40;;;25.60;67.00;;;;;;5038655;28;20399;-68
2022/06/21 11:47:09;;;;;;;3.50;1.20;;;26.10;67.30;;;;;;5048892;28;20037;-73
2022/06/21 11:49:36;;;;;;;7.15;2.05;;;25.80;68.50;;;;;;5066069;28;20056;-72
2022/06/21 11:52:20;;;;;;;2.83;1.50;;;25.80;68.60;;;;;;5053070;28;20095;-66
2022/06/21 11:54:49;;;;;;;5.03;1.60;;;25.90;67.20;;;;;;5048550;28;20081;-66
2022/06/21 11:57:53;;;;;;;4.85;1.60;;;26.00;69.00;;;;;;5031437;28;20053;-66
2022/06/21 12:00:29;;;;;;;4.03;1.70;;;26.00;67.60;;;;;;4956744;28;20113;-66
2022/06/21 12:02:57;;;;;;;4.47;1.40;;;26.10;67.80;;;;;;4956764;28;20493;-66
2022/06/21 12:05:51;;;;;;;4.68;1.38;;;25.90;69.20;;;;;;4956132;28;20413;-68
2022/06/21 12:08:24;;;;;;;4.18;1.33;;;26.10;68.40;;;;;;4940630;28;20132;-68
2022/06/21 12:11:12;;;;;;;3.00;1.52;;;25.80;67.80;;;;;;4941248;28;20050;-66
2022/06/21 12:14:04;;;;;;;4.90;1.52;;;26.10;70.20;;;;;;4956412;28;20504;-66
2022/06/21 12:16:41;;;;;;;4.05;1.60;;;26.20;68.60;;;;;;4940518;28;20133;-66
2022/06/21 12:19:11;;;;;;;5.60;2.00;;;26.30;70.20;;;;;;4956405;28;20046;-66
2022/06/21 12:21:40;;;;;;;4.93;1.40;;;26.10;69.70;;;;;;4972205;28;20059;-66
2022/06/21 12:24:11;;;;;;;3.28;1.55;;;26.20;69.90;;;;;;4972489;28;20050;-66
2022/06/21 12:26:37;;;;;;;3.45;1.42;;;26.20;70.00;;;;;;4955375;28;20103;-66
2022/06/21 12:29:05;;;;;;;3.08;1.30;;;26.10;69.30;;;;;;4974249;28;20059;-66
2022/06/21 12:31:35;;;;;;;2.42;1.20;;;26.10;69.80;;;;;;4956251;28;20051;-67
2022/06/21 12:34:07;;;;;;;4.13;1.48;;;26.10;70.20;;;;;;4979973;28;20499;-68
2022/06/21 12:36:36;;;;;;;4.47;1.48;;;26.20;68.80;;;;;;5031200;28;20462;-70
2022/06/21 12:39:22;;;;;;;3.20;1.40;;;26.00;69.50;;;;;;5051959;28;20469;-68
2022/06/21 12:42:03;;;;;;;3.45;1.40;;;26.40;71.10;;;;;;5035234;28;20053;-70
2022/06/21 12:44:46;;;;;;;4.43;1.52;;;26.30;70.00;;;;;;5051262;28;20106;-69
2022/06/21 12:47:11;;;;;;;;;;;26.30;69.30;;;;;;5070213;28;20052;-67
2022/06/21 12:50:15;;;;;;;3.42;1.40;;;26.30;70.60;;;;;;5033258;28;19966;-66
2022/06/21 12:53:19;;;;;;;3.33;1.55;;;26.30;69.80;;;;;;5032089;28;20049;-66
2022/06/21 12:56:22;;;;;;;3.03;1.30;;;26.10;71.50;;;;;;4995028;28;20050;-66
2022/06/21 12:59:20;;;;;;;1.92;1.35;;;25.90;69.70;;;;;;4994252;28;20046;-66
2022/06/21 13:02:19;;;;;;;3.35;1.20;;;26.10;69.80;;;;;;4991939;28;20479;-66
2022/06/21 13:05:21;;;;;;;2.72;1.50;;;26.20;69.90;;;;;;4952981;29;20476;-66
2022/06/21 13:08:07;;;;;;;3.80;1.40;;;26.30;70.10;;;;;;4954015;28;20490;-66
2022/06/21 13:10:53;;;;;;;1.20;1.00;;;27.20;70.30;;;;;;4924418;29;20077;-66
2022/06/21 13:13:33;;;;;;;3.38;1.50;;;26.40;71.80;;;;;;4940673;29;20063;-66
2022/06/21 13:16:20;;;;;;;3.80;1.60;;;26.10;69.70;;;;;;4956753;29;20448;-69
2022/06/21 13:19:05;;;;;;;2.72;1.33;;;26.30;70.00;;;;;;4937098;29;20063;-66
2022/06/21 13:21:37;;;;;;;2.92;1.20;;;26.10;71.20;;;;;;4934825;29;20059;-67
2022/06/21 13:24:12;;;;;;;;;;;26.30;69.70;;;;;;4952985;29;20051;-69
2022/06/21 13:26:46;;;;;;;3.25;1.60;;;26.10;70.10;;;;;;4969069;28;19926;-66
2022/06/21 13:29:39;;;;;;;2.13;1.27;;;25.90;71.10;;;;;;4953044;29;20055;-68
2022/06/21 13:32:08;;;;;;;3.90;1.40;;;26.20;70.10;;;;;;4972437;28;20055;-68
2022/06/21 13:34:42;;;;;;;2.53;1.30;;;26.30;71.40;;;;;;4978315;28;20442;-68
2022/06/21 13:37:31;;;;;;;3.65;1.35;;;26.10;69.80;;;;;;4978253;28;20058;-72
2022/06/21 13:40:02;;;;;;;3.08;1.23;;;26.40;71.50;;;;;;4979571;28;20054;-68
2022/06/21 13:42:38;;;;;;;2.75;1.30;;;26.20;71.20;;;;;;5035996;28;20411;-67
2022/06/21 13:45:12;;;;;;;3.85;1.25;;;26.10;69.70;;;;;;5018730;28;20053;-68
2022/06/21 13:47:53;;;;;;;2.60;1.15;;;26.10;70.90;;;;;;5018306;28;20057;-68
2022/06/21 13:50:39;;;;;;;3.38;1.65;;;26.20;70.10;;;;;;5034634;28;20510;-68